Time;durP1;ratioP1;P1;durP2;ratioP2;P2;SDS_P1;SDS_P2;PMS_P1;PMS_P2;Temp;Humidity;BMP_temperature;BMP_pressure;BME280_temperature;BME280_humidity;BME280_pressure;Samples;Min_cycle;Max_cycle;Signal;HPM_P1;HPM_P2
2021/12/28 00:02:06;;;;;;;19.15;8.63;;;;;;;7.07;100.00;94117.28;10358577;28;20721;-77
2021/12/28 00:07:06;;;;;;;16.92;8.05;;;;;;;6.91;100.00;94103.13;10340168;28;20488;-71
2021/12/28 00:12:07;;;;;;;18.92;8.63;;;;;;;6.96;100.00;94111.16;10358942;28;20041;-73
2021/12/28 00:22:27;;;;;;;16.05;8.43;;;;;;;6.95;100.00;94111.38;10406567;28;20037;-71
2021/12/28 00:27:27;;;;;;;19.30;8.38;;;;;;;7.00;100.00;94120.25;10389004;28;20483;-73
2021/12/28 00:32:28;;;;;;;18.67;8.48;;;;;;;6.96;100.00;94116.50;10405583;28;20095;-73
2021/12/28 00:37:29;;;;;;;18.27;9.20;;;;;;;6.88;100.00;94114.34;10389567;28;20025;-71
2021/12/28 00:42:29;;;;;;;20.02;9.35;;;;;;;7.01;100.00;94119.16;10396064;28;20037;-71
2021/12/28 00:47:30;;;;;;;16.52;9.13;;;;;;;7.20;100.00;94107.97;10306861;28;20039;-73
2021/12/28 00:52:30;;;;;;;16.80;9.63;;;;;;;7.22;100.00;94099.66;10322563;28;20042;-75
2021/12/28 00:57:31;;;;;;;26.70;12.82;;;;;;;7.26;100.00;94088.16;10339762;28;20638;-71
2021/12/28 01:02:32;;;;;;;15.55;8.70;;;;;;;7.40;100.00;94103.69;10339775;28;20071;-70
2021/12/28 01:07:32;;;;;;;15.68;9.02;;;;;;;7.31;100.00;94098.03;10322668;28;20031;-74
2021/12/28 01:12:33;;;;;;;17.40;8.70;;;;;;;7.41;100.00;94098.06;10339314;28;20506;-72
2021/12/28 01:17:35;;;;;;;18.00;8.88;;;;;;;7.36;100.00;94106.88;10350767;28;20061;-70
2021/12/28 01:22:36;;;;;;;15.43;8.85;;;;;;;7.43;100.00;94100.47;10362683;28;20595;-74
2021/12/28 01:27:36;;;;;;;19.00;9.40;;;;;;;7.56;100.00;94101.78;10362158;28;20044;-73
2021/12/28 01:32:37;;;;;;;14.68;8.45;;;;;;;7.47;100.00;94102.31;10306542;28;20061;-68
2021/12/28 01:37:39;;;;;;;11.95;7.60;;;;;;;7.57;100.00;94098.03;10283909;28;20034;-75
2021/12/28 01:43:07;;;;;;;16.08;7.93;;;;;;;7.51;100.00;94100.72;10307727;28;20088;-70
2021/12/28 01:48:13;;;;;;;16.33;8.23;;;;;;;7.61;100.00;94097.22;10321722;28;20058;-76
2021/12/28 01:53:14;;;;;;;14.73;7.72;;;;;;;7.48;100.00;94103.94;10350376;28;20466;-69
2021/12/28 01:58:15;;;;;;;11.95;7.45;;;;;;;7.58;100.00;94095.09;10345040;28;20026;-74
2021/12/28 02:03:18;;;;;;;17.45;9.02;;;;;;;7.67;100.00;94101.50;10344870;28;20133;-71
2021/12/28 02:08:18;;;;;;;17.92;8.43;;;;;;;7.68;100.00;94091.59;10336903;28;20034;-70
2021/12/28 02:13:20;;;;;;;18.42;8.70;;;;;;;7.63;100.00;94089.75;10320184;28;20030;-71
2021/12/28 02:18:23;;;;;;;20.40;7.95;;;;;;;7.67;100.00;94085.47;10353417;28;20025;-70
2021/12/28 02:23:25;;;;;;;18.52;8.55;;;;;;;7.61;100.00;94089.19;10361629;28;20044;-69
2021/12/28 02:28:25;;;;;;;13.85;8.18;;;;;;;7.66;100.00;94078.50;10360342;28;20080;-70
2021/12/28 02:33:27;;;;;;;15.45;7.90;;;;;;;7.62;100.00;94073.94;10360095;28;20125;-72
2021/12/28 02:38:29;;;;;;;16.42;7.88;;;;;;;7.67;100.00;94073.94;10355407;28;20053;-74
2021/12/28 02:43:29;;;;;;;15.00;6.45;;;;;;;7.65;100.00;94068.06;10359045;28;20037;-73
2021/12/28 02:48:30;;;;;;;16.25;8.93;;;;;;;7.60;100.00;94079.56;10342598;28;20046;-70
2021/12/28 02:53:31;;;;;;;15.35;8.23;;;;;;;7.62;100.00;94077.44;10359964;28;20093;-71
2021/12/28 02:58:38;;;;;;;21.17;9.40;;;;;;;7.40;100.00;94101.78;10359262;28;20025;-74
2021/12/28 03:03:38;;;;;;;13.55;8.25;;;;;;;7.45;100.00;94093.78;10358146;28;20029;-74
2021/12/28 03:08:43;;;;;;;13.95;7.88;;;;;;;7.42;100.00;94096.97;10359127;28;20030;-75
2021/12/28 03:13:47;;;;;;;15.02;8.48;;;;;;;7.47;100.00;94093.50;10358222;28;20226;-70
2021/12/28 03:18:47;;;;;;;16.42;8.13;;;;;;;7.39;100.00;94094.03;10358360;28;20030;-74
2021/12/28 03:23:49;;;;;;;22.38;9.25;;;;;;;7.48;100.00;94103.09;10358838;28;20403;-72
2021/12/28 03:28:50;;;;;;;15.95;9.23;;;;;;;7.19;100.00;94101.78;10341546;28;20483;-70
2021/12/28 03:33:52;;;;;;;16.25;8.60;;;;;;;6.98;100.00;94109.00;10358250;28;20412;-71
2021/12/28 03:38:53;;;;;;;21.75;9.73;;;;;;;7.04;100.00;94092.97;10359339;28;20030;-69
2021/12/28 03:43:56;;;;;;;16.80;9.43;;;;;;;7.07;100.00;94098.56;10376115;28;20133;-69
2021/12/28 03:48:57;;;;;;;17.20;9.10;;;;;;;7.06;100.00;94102.34;10381122;28;20071;-74
2021/12/28 03:53:58;;;;;;;16.77;8.60;;;;;;;7.00;100.00;94087.34;10377252;28;20546;-72
2021/12/28 03:58:58;;;;;;;18.95;10.00;;;;;;;6.96;100.00;94103.13;10350040;28;20049;-73
2021/12/28 04:03:59;;;;;;;18.73;10.20;;;;;;;7.00;100.00;94096.19;10366205;28;20559;-75
2021/12/28 04:09:02;;;;;;;14.18;9.27;;;;;;;7.12;100.00;94105.81;10349155;28;20046;-75
2021/12/28 04:14:07;;;;;;;19.00;9.77;;;;;;;6.99;100.00;94105.28;10364946;28;20384;-74
2021/12/28 04:19:08;;;;;;;15.18;9.38;;;;;;;6.88;100.00;94094.81;10389522;28;20026;-78
2021/12/28 04:24:09;;;;;;;16.60;9.13;;;;;;;6.90;100.00;94101.50;10406929;28;20522;-72
2021/12/28 04:29:09;;;;;;;15.98;9.23;;;;;;;6.71;100.00;94100.41;10389402;28;20041;-74
2021/12/28 04:34:10;;;;;;;18.08;10.10;;;;;;;6.69;100.00;94115.91;10406054;28;20023;-69
2021/12/28 04:39:10;;;;;;;20.65;10.45;;;;;;;6.62;100.00;94108.16;10389080;28;20031;-73
2021/12/28 04:44:13;;;;;;;19.45;10.70;;;;;;;6.61;100.00;94112.66;10398554;28;20059;-73
2021/12/28 04:49:16;;;;;;;21.70;9.25;;;;;;;6.27;100.00;94129.13;10405861;28;20045;-74
2021/12/28 04:54:18;;;;;;;19.23;10.82;;;;;;;6.11;100.00;94125.59;10372413;28;20530;-75
2021/12/28 04:59:19;;;;;;;19.70;10.95;;;;;;;5.95;100.00;94119.34;10371394;28;20058;-74
2021/12/28 05:04:19;;;;;;;21.52;11.38;;;;;;;5.87;100.00;94119.81;10362477;28;20117;-75
2021/12/28 05:09:20;;;;;;;21.63;11.00;;;;;;;5.82;100.00;94127.81;10383135;28;20407;-72
2021/12/28 05:14:21;;;;;;;24.20;10.93;;;;;;;5.86;100.00;94131.56;10365971;28;20040;-72
2021/12/28 05:19:22;;;;;;;26.80;11.15;;;;;;;5.75;100.00;94129.88;10386431;28;20400;-76
2021/12/28 05:24:23;;;;;;;18.48;10.65;;;;;;;5.79;100.00;94134.47;10382898;28;20495;-74
2021/12/28 05:29:23;;;;;;;18.88;10.80;;;;;;;5.90;100.00;94127.31;10346258;28;20187;-76
2021/12/28 05:34:24;;;;;;;19.80;9.95;;;;;;;6.01;100.00;94132.72;10346278;28;20037;-72
2021/12/28 05:39:25;;;;;;;22.63;10.98;;;;;;;6.16;100.00;94135.47;10350327;28;20037;-76
2021/12/28 05:44:25;;;;;;;22.17;10.15;;;;;;;6.07;100.00;94137.84;10369879;28;20065;-71
2021/12/28 05:49:26;;;;;;;19.58;10.57;;;;;;;6.24;100.00;94134.19;10386376;28;20048;-74
2021/12/28 05:54:26;;;;;;;20.42;10.82;;;;;;;6.38;100.00;94137.97;10369891;28;20037;-72
2021/12/28 05:59:27;;;;;;;26.05;12.98;;;;;;;6.49;100.00;94144.16;10385621;28;20049;-71
2021/12/28 06:04:27;;;;;;;19.85;11.65;;;;;;;6.58;100.00;94133.75;10368549;28;20495;-74
2021/12/28 06:09:29;;;;;;;21.48;10.00;;;;;;;6.64;100.00;94138.03;10369272;28;20487;-71
2021/12/28 06:14:29;;;;;;;19.58;10.98;;;;;;;6.27;100.00;94142.47;10385635;28;20032;-76
2021/12/28 06:19:31;;;;;;;20.65;11.52;;;;;;;6.45;100.00;94141.19;10390426;28;20388;-75
2021/12/28 06:24:32;;;;;;;22.88;10.65;;;;;;;6.64;100.00;94138.88;10343769;28;20041;-73
2021/12/28 06:29:33;;;;;;;21.73;11.18;;;;;;;6.75;100.00;94144.22;10360468;28;20034;-75
2021/12/28 06:34:36;;;;;;;23.13;11.88;;;;;;;6.91;100.00;94139.72;10359817;28;20471;-72
2021/12/28 06:39:36;;;;;;;21.75;10.65;;;;;;;6.98;100.00;94138.38;10343027;28;20026;-74
2021/12/28 06:44:37;;;;;;;19.85;11.40;;;;;;;6.86;100.00;94135.16;10326700;28;20061;-74
2021/12/28 06:49:38;;;;;;;20.95;11.10;;;;;;;7.02;100.00;94144.00;10358546;28;20045;-71
2021/12/28 06:54:39;;;;;;;28.33;12.93;;;;;;;7.24;100.00;94154.47;10358375;28;20030;-73
2021/12/28 06:59:43;;;;;;;30.00;14.55;;;;;;;7.25;100.00;94158.72;10359418;28;20431;-73
2021/12/28 07:04:44;;;;;;;27.30;14.18;;;;;;;7.39;100.00;94158.19;10358013;28;20485;-71
2021/12/28 07:09:44;;;;;;;27.17;13.90;;;;;;;7.66;100.00;94158.75;10358394;28;20052;-76
2021/12/28 07:14:45;;;;;;;38.53;15.65;;;;;;;7.74;100.00;94160.06;10346892;28;20033;-75
2021/12/28 07:19:46;;;;;;;27.75;13.50;;;;;;;8.10;100.00;94167.22;10397237;28;20407;-73
2021/12/28 07:24:46;;;;;;;21.23;11.82;;;;;;;8.49;100.00;94153.22;10381336;28;20033;-76
2021/12/28 07:29:48;;;;;;;26.73;12.40;;;;;;;8.62;100.00;94157.97;10365409;28;20120;-76
2021/12/28 07:34:49;;;;;;;22.65;12.27;;;;;;;8.58;100.00;94159.59;10361639;28;20037;-71
2021/12/28 07:39:50;;;;;;;24.25;11.93;;;;;;;8.56;100.00;94164.44;10358258;28;20029;-75
2021/12/28 07:44:51;;;;;;;23.20;11.60;;;;;;;8.52;100.00;94164.16;10387178;28;20065;-72
2021/12/28 07:49:51;;;;;;;21.52;12.23;;;;;;;8.48;100.00;94156.97;10364608;28;20040;-74
2021/12/28 07:54:53;;;;;;;18.13;12.02;;;;;;;8.57;100.00;94159.88;10361185;28;20044;-80
2021/12/28 07:59:53;;;;;;;16.42;9.75;;;;;;;8.51;100.00;94162.59;10340075;28;20129;-73
2021/12/28 08:04:54;;;;;;;15.43;8.07;;;;;;;8.58;100.00;94170.31;10324053;28;20033;-76
2021/12/28 08:09:54;;;;;;;14.15;8.50;;;;;;;8.71;100.00;94155.53;10356717;28;20157;-72
2021/12/28 08:14:56;;;;;;;14.82;7.85;;;;;;;8.89;100.00;94156.78;10346866;28;20069;-74
2021/12/28 08:19:57;;;;;;;13.98;7.32;;;;;;;9.15;100.00;94148.56;10370236;28;20048;-70
2021/12/28 08:24:59;;;;;;;15.43;6.50;;;;;;;9.39;100.00;94149.47;10340231;28;20446;-72
2021/12/28 08:30:00;;;;;;;14.30;6.40;;;;;;;10.07;100.00;94137.09;10340573;28;20570;-71
2021/12/28 08:35:05;;;;;;;16.85;6.40;;;;;;;10.91;100.00;94159.22;10356108;28;20026;-81
2021/12/28 08:40:08;;;;;;;9.20;5.57;;;;;;;11.71;100.00;94151.34;10356210;28;20029;-73
2021/12/28 08:45:09;;;;;;;10.48;4.60;;;;;;;12.27;100.00;94142.31;10363680;28;20053;-76
2021/12/28 08:50:11;;;;;;;8.80;4.90;;;;;;;12.54;100.00;94137.22;10346956;28;20061;-73
2021/12/28 08:55:11;;;;;;;9.55;4.95;;;;;;;12.62;100.00;94133.84;10362422;28;20030;-77
2021/12/28 09:00:16;;;;;;;12.68;4.75;;;;;;;12.95;100.00;94125.63;10347129;28;20507;-72
2021/12/28 09:05:17;;;;;;;14.18;6.93;;;;;;;12.96;100.00;94121.78;10363185;28;20431;-72
2021/12/28 09:10:17;;;;;;;11.50;6.95;;;;;;;13.05;100.00;94116.50;10362066;28;20434;-72
2021/12/28 09:15:18;;;;;;;12.93;8.10;;;;;;;13.34;100.00;94121.50;10372147;28;20198;-71
2021/12/28 09:20:22;;;;;;;18.27;9.75;;;;;;;13.25;100.00;94118.72;10387054;28;20064;-72
2021/12/28 09:25:23;;;;;;;10.73;6.45;;;;;;;13.04;100.00;94123.00;10384655;28;20428;-72
2021/12/28 09:30:24;;;;;;;14.85;6.63;;;;;;;12.85;100.00;94120.41;10386145;28;20029;-72
2021/12/28 09:35:24;;;;;;;8.27;5.25;;;;;;;12.70;100.00;94122.34;10386685;28;20415;-73
2021/12/28 09:40:25;;;;;;;9.50;5.43;;;;;;;12.54;100.00;94112.97;10385620;28;20021;-73
2021/12/28 09:45:27;;;;;;;14.38;7.40;;;;;;;12.34;100.00;94101.50;10385046;28;20504;-73
2021/12/28 09:50:29;;;;;;;13.35;6.63;;;;;;;12.74;100.00;94100.94;10384522;28;20033;-75
2021/12/28 09:55:30;;;;;;;7.43;3.40;;;;;;;13.54;100.00;94101.34;10384338;28;20507;-73
2021/12/28 10:00:31;;;;;;;5.65;3.47;;;;;;;14.52;100.00;94105.00;10384557;28;20060;-73
2021/12/28 10:05:33;;;;;;;4.97;3.28;;;;;;;14.88;100.00;94100.53;10379992;28;20076;-73
2021/12/28 10:10:37;;;;;;;5.75;3.33;;;;;;;14.96;100.00;94097.03;10327892;28;20099;-73
2021/12/28 10:15:40;;;;;;;3.25;2.38;;;;;;;17.33;79.03;94080.03;10354739;28;20033;-73
2021/12/28 10:20:45;;;;;;;5.97;2.97;;;;;;;19.41;60.04;94082.56;10400884;28;20029;-71
2021/12/28 10:25:49;;;;;;;6.80;2.80;;;;;;;19.08;58.70;94078.91;10400468;28;20518;-71
2021/12/28 10:30:56;;;;;;;7.70;3.08;;;;;;;19.33;57.81;94069.91;10303312;28;20037;-75
2021/12/28 10:36:04;;;;;;;5.87;4.03;;;;;;;20.26;54.10;94069.72;10346257;28;20106;-77
2021/12/28 10:41:10;;;;;;;8.73;3.50;;;;;;;20.89;50.54;94062.66;10368077;28;20036;-73
2021/12/28 10:46:14;;;;;;;5.85;4.22;;;;;;;18.65;59.86;94066.66;10382680;28;20473;-72
2021/12/28 10:51:20;;;;;;;10.00;5.30;;;;;;;16.81;74.21;94073.03;10367140;28;20495;-73
2021/12/28 10:56:21;;;;;;;10.77;5.32;;;;;;;15.70;87.01;94073.59;10401209;28;20594;-76
2021/12/28 11:01:34;;;;;;;12.75;6.15;;;;;;;15.04;95.67;94077.31;10382267;28;20028;-73
2021/12/28 11:06:54;;;;;;;12.45;5.50;;;;;;;14.18;100.00;94071.34;10382686;28;20040;-77
2021/12/28 11:11:56;;;;;;;8.73;4.72;;;;;;;15.15;97.25;94058.03;10380963;28;20456;-72
2021/12/28 11:17:02;;;;;;;10.70;5.32;;;;;;;14.56;100.00;94055.72;10401180;28;20082;-74
2021/12/28 11:22:05;;;;;;;11.20;4.80;;;;;;;14.70;96.94;94067.22;10365381;28;20057;-73
2021/12/28 11:27:07;;;;;;;10.23;5.30;;;;;;;15.10;96.66;94061.72;10324159;28;20116;-72
2021/12/28 11:32:17;;;;;;;8.77;5.05;;;;;;;16.01;83.22;94052.84;10301798;28;20493;-73
2021/12/28 11:37:22;;;;;;;7.07;4.25;;;;;;;15.97;80.54;94046.47;10317546;28;20080;-73
2021/12/28 11:42:24;;;;;;;9.05;4.30;;;;;;;15.38;89.23;94045.13;10322164;28;20030;-77
2021/12/28 11:47:25;;;;;;;14.18;6.05;;;;;;;14.53;100.00;94038.22;10317303;28;20054;-74
2021/12/28 11:52:26;;;;;;;8.57;4.97;;;;;;;14.72;95.52;94040.69;10299922;28;20041;-77
2021/12/28 11:57:30;;;;;;;10.02;5.20;;;;;;;14.38;98.28;94031.34;10316418;28;20019;-76
2021/12/28 12:02:47;;;;;;;10.82;5.93;;;;;;;14.24;100.00;94026.06;10317099;28;20085;-74
2021/12/28 12:08:07;;;;;;;11.93;6.40;;;;;;;13.78;100.00;94021.91;10315736;28;20453;-72
2021/12/28 12:13:24;;;;;;;9.70;6.15;;;;;;;13.45;100.00;94017.63;10316686;28;20043;-76
2021/12/28 12:18:29;;;;;;;12.20;6.05;;;;;;;13.44;100.00;94013.31;10382871;28;20062;-77
2021/12/28 12:23:40;;;;;;;11.63;6.35;;;;;;;13.21;100.00;94019.81;10406367;28;20030;-73
2021/12/28 12:28:50;;;;;;;13.13;7.35;;;;;;;13.03;100.00;94011.56;10388468;28;20020;-74
2021/12/28 12:33:51;;;;;;;13.85;6.68;;;;;;;12.85;100.00;94012.56;10388431;28;20587;-75
2021/12/28 12:38:53;;;;;;;11.02;6.53;;;;;;;12.53;100.00;94008.94;10388572;28;20017;-72
2021/12/28 12:43:57;;;;;;;13.85;6.40;;;;;;;12.33;100.00;94015.56;10365721;28;20136;-77
2021/12/28 12:49:01;;;;;;;14.13;6.00;;;;;;;12.23;100.00;94014.69;10364882;28;20026;-74
2021/12/28 12:54:19;;;;;;;14.77;6.50;;;;;;;12.23;100.00;94013.91;10362989;28;20061;-72
2021/12/28 12:59:19;;;;;;;15.48;6.55;;;;;;;12.10;100.00;94024.38;10362236;28;20113;-71
2021/12/28 13:04:26;;;;;;;15.43;7.07;;;;;;;11.93;100.00;94022.25;10363259;28;20036;-74
2021/12/28 13:09:27;;;;;;;14.73;7.70;;;;;;;11.80;100.00;94033.81;10365038;28;20948;-73
2021/12/28 13:14:29;;;;;;;18.58;8.27;;;;;;;11.61;100.00;94021.22;10347877;28;20028;-72
2021/12/28 13:19:30;;;;;;;21.17;8.60;;;;;;;11.56;100.00;94017.84;10403881;28;20029;-74
2021/12/28 13:24:33;;;;;;;16.83;9.25;;;;;;;11.61;100.00;94021.22;10387249;28;20029;-70
2021/12/28 13:29:36;;;;;;;15.25;7.50;;;;;;;11.20;100.00;94019.22;10403459;28;20022;-77
2021/12/28 13:35:07;;;;;;;16.55;7.60;;;;;;;11.16;100.00;94018.22;10385430;28;20610;-75
2021/12/28 13:40:13;;;;;;;14.65;7.88;;;;;;;11.07;100.00;94028.84;10403440;28;20084;-71
2021/12/28 13:45:35;;;;;;;16.95;7.75;;;;;;;10.76;100.00;94015.09;10347867;28;20614;-75
2021/12/28 13:50:38;;;;;;;13.98;8.23;;;;;;;10.66;100.00;94012.56;10360712;28;20022;-77
2021/12/28 13:55:39;;;;;;;16.63;8.65;;;;;;;10.28;100.00;94018.69;10344563;28;20467;-74
2021/12/28 14:00:40;;;;;;;20.00;9.27;;;;;;;10.08;100.00;94023.22;10329651;28;20073;-73
2021/12/28 14:05:41;;;;;;;14.50;8.00;;;;;;;10.15;100.00;94033.63;10350235;28;20501;-78
2021/12/28 14:10:43;;;;;;;20.75;7.82;;;;;;;10.02;100.00;94028.94;10360480;28;20097;-73
2021/12/28 14:16:00;;;;;;;13.70;7.07;;;;;;;10.22;100.00;94031.38;10372724;28;20606;-73
2021/12/28 14:21:27;;;;;;;12.30;7.25;;;;;;;10.13;100.00;94034.97;10401010;28;20021;-71
2021/12/28 14:26:41;;;;;;;14.90;7.32;;;;;;;10.07;100.00;94040.44;10354254;28;20091;-71
2021/12/28 14:31:51;;;;;;;15.10;8.52;;;;;;;9.87;100.00;94037.97;10342631;28;20036;-72
2021/12/28 14:36:58;;;;;;;18.52;9.30;;;;;;;9.83;100.00;94039.63;10359518;28;20029;-71
2021/12/28 14:42:09;;;;;;;17.02;9.40;;;;;;;9.76;100.00;94045.34;10342853;28;20678;-72
2021/12/28 14:47:21;;;;;;;19.95;9.55;;;;;;;9.66;100.00;94046.25;10342243;28;20058;-75
2021/12/28 14:52:30;;;;;;;21.45;9.85;;;;;;;9.74;100.00;94045.63;10358357;28;20061;-70
2021/12/28 14:57:39;;;;;;;20.50;10.80;;;;;;;9.76;100.00;94056.06;10326758;28;20034;-72
2021/12/28 15:02:54;;;;;;;20.67;9.57;;;;;;;9.76;100.00;94056.06;10357561;28;20342;-74
2021/12/28 15:08:03;;;;;;;19.30;10.10;;;;;;;9.69;100.00;94045.66;10359931;28;20026;-71
2021/12/28 15:13:06;;;;;;;20.35;10.25;;;;;;;9.60;100.00;94050.06;10358795;28;20030;-71
2021/12/28 15:18:09;;;;;;;36.42;16.30;;;;;;;9.45;100.00;94047.53;10381730;28;20021;-73
2021/12/28 15:23:09;;;;;;;32.63;16.40;;;;;;;9.52;100.00;94061.41;10399700;28;20557;-70
2021/12/28 15:28:10;;;;;;;30.35;13.63;;;;;;;9.33;100.00;94047.91;10382401;28;20079;-75
2021/12/28 15:33:12;;;;;;;28.45;13.13;;;;;;;9.26;100.00;94050.09;10399636;28;20029;-72
2021/12/28 15:38:16;;;;;;;26.40;12.50;;;;;;;9.25;100.00;94043.94;10381321;28;20048;-70
2021/12/28 15:43:16;;;;;;;22.10;11.98;;;;;;;9.14;100.00;94048.59;10381553;28;20577;-77
2021/12/28 15:48:17;;;;;;;22.65;11.82;;;;;;;8.92;100.00;94051.72;10379987;28;20181;-70
2021/12/28 15:53:17;;;;;;;21.75;12.05;;;;;;;8.77;100.00;94051.81;10405937;28;20624;-71
2021/12/28 15:58:18;;;;;;;23.25;11.10;;;;;;;8.72;100.00;94050.78;10390565;28;20021;-71
2021/12/28 16:03:18;;;;;;;27.75;14.10;;;;;;;8.62;100.00;94042.78;10384465;28;20037;-72
2021/12/28 16:08:19;;;;;;;28.10;13.13;;;;;;;8.62;100.00;94045.47;10407140;28;20037;-70
2021/12/28 16:13:19;;;;;;;23.90;12.93;;;;;;;8.55;100.00;94058.38;10458262;23;20148;-72
2021/12/28 16:18:20;;;;;;;22.02;12.63;;;;;;;8.34;100.00;94066.50;10456218;28;20546;-74
2021/12/28 16:23:21;;;;;;;24.08;12.50;;;;;;;8.30;100.00;94065.44;10431172;28;20036;-71
2021/12/28 16:28:21;;;;;;;23.55;13.65;;;;;;;7.98;100.00;94063.16;10429935;28;20083;-74
2021/12/28 16:33:22;;;;;;;34.55;15.35;;;;;;;7.91;100.00;94059.97;10447695;28;20434;-74
2021/12/28 16:38:22;;;;;;;26.15;15.75;;;;;;;7.74;100.00;94062.97;10446563;28;20040;-75
2021/12/28 16:43:23;;;;;;;31.02;13.65;;;;;;;7.67;100.00;94060.56;10430185;28;20409;-69
2021/12/28 16:48:25;;;;;;;25.90;13.45;;;;;;;7.67;100.00;94065.91;10427813;28;20025;-74
2021/12/28 16:53:26;;;;;;;29.60;13.68;;;;;;;7.58;100.00;94070.25;10428063;28;20029;-72
2021/12/28 16:58:26;;;;;;;23.80;13.90;;;;;;;7.40;100.00;94071.59;10428896;28;20043;-76
2021/12/28 17:03:27;;;;;;;30.63;13.75;;;;;;;7.47;100.00;94072.13;10428272;28;20033;-71
2021/12/28 17:08:27;;;;;;;24.42;13.98;;;;;;;7.48;100.00;94071.03;10425009;28;20033;-70
2021/12/28 17:13:28;;;;;;;36.97;16.67;;;;;;;7.42;100.00;94080.94;10444750;28;20056;-72
2021/12/28 17:18:28;;;;;;;33.40;15.45;;;;;;;7.36;100.00;94079.34;10431896;28;20028;-75
2021/12/28 17:23:29;;;;;;;38.35;16.80;;;;;;;7.16;100.00;94085.50;10427028;28;20028;-71
2021/12/28 17:28:29;;;;;;;36.00;17.42;;;;;;;7.16;100.00;94080.16;10428020;28;20483;-72
2021/12/28 17:33:33;;;;;;;34.00;16.70;;;;;;;7.18;100.00;94083.34;10402205;28;20503;-71
2021/12/28 17:38:35;;;;;;;35.13;15.88;;;;;;;7.15;100.00;94081.22;10385920;28;20033;-71
2021/12/28 17:43:35;;;;;;;34.25;16.02;;;;;;;7.06;100.00;94080.97;10478084;23;20030;-75
2021/12/28 17:48:36;;;;;;;28.20;12.70;;;;;;;6.90;100.00;94092.69;10385410;28;20494;-73
2021/12/28 17:53:36;;;;;;;28.50;13.38;;;;;;;6.78;100.00;94084.94;10403170;28;20503;-71
2021/12/28 17:58:37;;;;;;;24.90;12.88;;;;;;;6.66;100.00;94088.66;10384051;28;20592;-70
2021/12/28 18:03:38;;;;;;;24.15;13.18;;;;;;;6.76;100.00;94084.41;10384211;28;20025;-71
2021/12/28 18:08:38;;;;;;;22.95;12.52;;;;;;;6.78;100.00;94091.09;10377627;28;20480;-73
2021/12/28 18:13:39;;;;;;;25.65;13.57;;;;;;;6.81;100.00;94095.91;10357763;28;20080;-75
2021/12/28 18:18:40;;;;;;;25.23;13.60;;;;;;;6.86;100.00;94086.28;10434842;28;20021;-75
2021/12/28 18:23:41;;;;;;;28.13;12.80;;;;;;;6.85;100.00;94080.13;10424704;28;20037;-70
2021/12/28 18:28:43;;;;;;;29.75;13.40;;;;;;;6.88;100.00;94076.94;10401643;28;20034;-71
2021/12/28 18:33:45;;;;;;;24.63;12.32;;;;;;;6.95;100.00;94076.66;10400178;28;20026;-73
2021/12/28 18:38:47;;;;;;;24.27;11.77;;;;;;;7.08;100.00;94078.03;10361794;28;20029;-73
2021/12/28 18:43:49;;;;;;;26.42;11.88;;;;;;;7.13;100.00;94083.34;10342783;28;20057;-74
2021/12/28 18:48:50;;;;;;;27.50;11.07;;;;;;;7.16;100.00;94078.28;10343523;28;20483;-73
2021/12/28 18:53:51;;;;;;;21.73;10.45;;;;;;;7.18;100.00;94080.69;10359134;28;20034;-72
2021/12/28 18:58:53;;;;;;;19.23;10.63;;;;;;;7.18;100.00;94083.34;10341254;28;20088;-72
2021/12/28 19:03:54;;;;;;;17.90;9.93;;;;;;;7.17;100.00;94095.94;10341893;28;20032;-70
2021/12/28 19:08:56;;;;;;;17.70;8.23;;;;;;;7.09;100.00;94099.13;10340138;28;20108;-75
2021/12/28 19:13:57;;;;;;;20.67;9.30;;;;;;;7.01;100.00;94097.00;10356852;28;20084;-72
2021/12/28 19:18:57;;;;;;;15.18;7.63;;;;;;;7.01;100.00;94097.00;10369308;28;20034;-75
2021/12/28 19:23:58;;;;;;;13.93;7.50;;;;;;;6.81;100.00;94095.09;10343711;28;20029;-69
2021/12/28 19:28:59;;;;;;;18.40;7.55;;;;;;;6.77;100.00;94094.03;10382722;28;20026;-73
2021/12/28 19:34:00;;;;;;;12.93;6.53;;;;;;;6.75;100.00;94091.59;10366233;28;20410;-70
2021/12/28 19:39:02;;;;;;;11.65;6.45;;;;;;;6.75;100.00;94070.22;10380638;28;20029;-71
2021/12/28 19:44:03;;;;;;;15.52;6.53;;;;;;;6.64;100.00;94073.97;10382382;28;20049;-73
2021/12/28 19:49:04;;;;;;;16.95;7.03;;;;;;;6.48;100.00;94070.47;10381508;28;20041;-69
2021/12/28 19:54:05;;;;;;;12.88;7.00;;;;;;;6.53;100.00;94065.16;10356160;28;20044;-72
2021/12/28 19:59:07;;;;;;;18.98;6.80;;;;;;;6.34;100.00;94064.81;10359041;28;20026;-70
2021/12/28 20:04:08;;;;;;;15.48;6.68;;;;;;;6.19;100.00;94067.44;10339792;28;20060;-69
2021/12/28 20:09:11;;;;;;;14.45;6.72;;;;;;;6.21;100.00;94066.13;10366360;28;20075;-77
2021/12/28 20:14:11;;;;;;;13.32;6.38;;;;;;;6.27;100.00;94065.06;10357259;28;20045;-72
2021/12/28 20:19:14;;;;;;;17.45;6.90;;;;;;;6.38;100.00;94059.75;10421362;28;20025;-76
2021/12/28 20:24:15;;;;;;;14.77;7.28;;;;;;;6.49;100.00;94064.06;10421577;28;20509;-71
2021/12/28 20:29:15;;;;;;;24.77;9.63;;;;;;;6.36;100.00;94068.03;10344744;28;20559;-73
2021/12/28 20:34:16;;;;;;;18.80;7.93;;;;;;;6.27;100.00;94065.06;10340013;28;20034;-70
2021/12/28 20:39:18;;;;;;;17.95;7.85;;;;;;;6.37;100.00;94050.16;10375835;28;20108;-73
2021/12/28 20:44:24;;;;;;;9.65;5.85;;;;;;;6.49;100.00;94042.72;10388149;28;20050;-71
2021/12/28 20:49:24;;;;;;;12.32;6.63;;;;;;;6.53;100.00;94037.63;10405483;28;20033;-70
2021/12/28 20:54:25;;;;;;;16.17;7.90;;;;;;;6.53;100.00;94029.63;10388421;28;20519;-73
2021/12/28 20:59:27;;;;;;;16.85;8.07;;;;;;;6.57;100.00;94025.38;10388187;28;20367;-71
2021/12/28 21:04:27;;;;;;;18.08;8.57;;;;;;;6.50;100.00;94017.59;10360403;28;20037;-71
2021/12/28 21:09:28;;;;;;;16.50;8.45;;;;;;;6.35;100.00;94021.06;10346286;28;20022;-71
2021/12/28 21:14:29;;;;;;;13.55;7.57;;;;;;;6.38;100.00;94019.72;10350680;28;20032;-70
2021/12/28 21:19:32;;;;;;;14.40;6.13;;;;;;;6.47;100.00;94020.81;10386190;28;20026;-70
2021/12/28 21:30:08;;;;;;;14.18;7.00;;;;;;;6.62;100.00;94012.81;10357263;28;20046;-70
2021/12/28 21:35:09;;;;;;;15.27;8.82;;;;;;;6.63;100.00;94009.09;10361877;28;20488;-73
2021/12/28 21:40:12;;;;;;;19.38;10.57;;;;;;;6.52;100.00;94020.81;10344483;28;20029;-70
2021/12/28 21:45:15;;;;;;;21.73;11.35;;;;;;;6.27;100.00;94030.38;10345016;28;20085;-72
2021/12/28 21:50:16;;;;;;;22.98;11.20;;;;;;;6.22;100.00;94033.03;10344567;28;20407;-78
2021/12/28 21:55:18;;;;;;;21.00;9.48;;;;;;;6.19;100.00;94030.88;10345695;28;20041;-76
2021/12/28 22:00:26;;;;;;;18.35;9.93;;;;;;;6.17;100.00;94041.03;10343776;28;20087;-72
2021/12/28 22:05:27;;;;;;;24.02;11.80;;;;;;;6.16;100.00;94037.56;10344745;28;20041;-72
2021/12/28 22:10:30;;;;;;;21.25;10.70;;;;;;;6.25;100.00;94047.72;10344131;28;20100;-71
2021/12/28 22:15:30;;;;;;;21.42;11.15;;;;;;;6.25;100.00;94048.53;10382356;28;20060;-75
2021/12/28 22:20:32;;;;;;;21.45;11.13;;;;;;;6.25;100.00;94045.03;10368697;28;20042;-72
2021/12/28 22:25:32;;;;;;;26.35;13.73;;;;;;;6.22;100.00;94057.03;10343734;28;20029;-71
2021/12/28 22:30:34;;;;;;;85.68;39.78;;;;;;;5.82;100.00;94069.94;10359905;28;20455;-72
2021/12/28 22:35:36;;;;;;;93.15;44.38;;;;;;;5.50;100.00;94063.88;10344690;28;20061;-73
2021/12/28 22:40:38;;;;;;;94.93;43.80;;;;;;;5.23;100.00;94078.13;10373369;28;20026;-71
2021/12/28 22:45:38;;;;;;;93.95;44.47;;;;;;;5.03;100.00;94070.78;10402083;28;20049;-74
2021/12/28 22:50:41;;;;;;;91.63;45.38;;;;;;;4.87;100.00;94080.50;10383579;28;20032;-71
2021/12/28 22:55:44;;;;;;;97.78;48.97;;;;;;;4.84;100.00;94081.00;10382768;28;20041;-72
2021/12/28 23:00:54;;;;;;;100.60;48.85;;;;;;;4.83;100.00;94085.53;10382511;28;20033;-75
2021/12/28 23:05:55;;;;;;;97.65;45.92;;;;;;;4.77;100.00;94097.19;10383245;28;20026;-71
2021/12/28 23:10:57;;;;;;;112.72;49.97;;;;;;;4.54;100.00;94095.66;10383182;28;20408;-74